sensor_id;sensor_type;location;lat;lon;timestamp;pressure;altitude;pressure_sealevel;temperature;humidity
55757;BME280;41676;44.610;44.078;2024-01-15T00:01:36;100471.16;;;-5.68;100.00
55757;BME280;41676;44.610;44.078;2024-01-15T00:06:37;100426.22;;;-6.08;100.00
55757;BME280;41676;44.610;44.078;2024-01-15T00:11:38;100470.06;;;-5.83;100.00
55757;BME280;41676;44.610;44.078;2024-01-15T00:16:40;100465.47;;;-5.77;100.00
55757;BME280;41676;44.610;44.078;2024-01-15T00:21:41;100478.09;;;-5.69;100.00
55757;BME280;41676;44.610;44.078;2024-01-15T00:26:43;100465.00;;;-5.66;100.00
55757;BME280;41676;44.610;44.078;2024-01-15T00:31:43;100412.38;;;-5.87;100.00
55757;BME280;41676;44.610;44.078;2024-01-15T00:36:44;100442.75;;;-5.70;100.00
55757;BME280;41676;44.610;44.078;2024-01-15T00:41:45;100411.53;;;-6.08;100.00
55757;BME280;41676;44.610;44.078;2024-01-15T00:46:46;100456.44;;;-5.88;100.00
55757;BME280;41676;44.610;44.078;2024-01-15T00:51:47;100436.41;;;-5.83;100.00
55757;BME280;41676;44.610;44.078;2024-01-15T00:56:47;100429.50;;;-5.83;100.00
55757;BME280;41676;44.610;44.078;2024-01-15T01:01:48;100421.72;;;-5.83;100.00
55757;BME280;41676;44.610;44.078;2024-01-15T01:06:49;100437.06;;;-5.78;100.00
55757;BME280;41676;44.610;44.078;2024-01-15T01:11:50;100437.41;;;-5.87;100.00
55757;BME280;41676;44.610;44.078;2024-01-15T01:16:51;100428.00;;;-5.88;100.00
55757;BME280;41676;44.610;44.078;2024-01-15T01:21:51;100425.81;;;-5.98;100.00
55757;BME280;41676;44.610;44.078;2024-01-15T01:26:52;100370.13;;;-6.28;100.00
55757;BME280;41676;44.610;44.078;2024-01-15T01:31:53;100387.25;;;-6.04;100.00
55757;BME280;41676;44.610;44.078;2024-01-15T01:36:54;100365.66;;;-6.03;100.00
55757;BME280;41676;44.610;44.078;2024-01-15T01:41:54;100384.22;;;-5.93;100.00
55757;BME280;41676;44.610;44.078;2024-01-15T01:46:56;100379.72;;;-5.89;100.00
55757;BME280;41676;44.610;44.078;2024-01-15T01:52:00;100354.72;;;-6.09;100.00
55757;BME280;41676;44.610;44.078;2024-01-15T01:57:02;100370.13;;;-6.06;100.00
55757;BME280;41676;44.610;44.078;2024-01-15T02:02:04;100374.84;;;-5.95;100.00
55757;BME280;41676;44.610;44.078;2024-01-15T02:07:06;100377.94;;;-5.87;100.00
55757;BME280;41676;44.610;44.078;2024-01-15T02:12:07;100375.47;;;-5.90;100.00
55757;BME280;41676;44.610;44.078;2024-01-15T02:17:07;100356.22;;;-5.83;100.00
55757;BME280;41676;44.610;44.078;2024-01-15T02:22:08;100370.81;;;-5.82;100.00
55757;BME280;41676;44.610;44.078;2024-01-15T02:27:09;100375.88;;;-5.79;100.00
55757;BME280;41676;44.610;44.078;2024-01-15T02:32:10;100375.53;;;-5.71;100.00
55757;BME280;41676;44.610;44.078;2024-01-15T02:37:10;100352.19;;;-5.90;100.00
55757;BME280;41676;44.610;44.078;2024-01-15T02:42:11;100372.78;;;-5.67;100.00
55757;BME280;41676;44.610;44.078;2024-01-15T02:47:14;100395.97;;;-5.65;100.00
55757;BME280;41676;44.610;44.078;2024-01-15T02:52:15;100386.34;;;-5.82;100.00
55757;BME280;41676;44.610;44.078;2024-01-15T02:57:15;100396.56;;;-6.00;100.00
55757;BME280;41676;44.610;44.078;2024-01-15T03:02:16;100360.38;;;-6.44;100.00
55757;BME280;41676;44.610;44.078;2024-01-15T03:07:17;100405.22;;;-6.23;100.00
55757;BME280;41676;44.610;44.078;2024-01-15T03:12:18;100428.44;;;-6.21;100.00
55757;BME280;41676;44.610;44.078;2024-01-15T03:17:19;100347.34;;;-6.62;100.00
55757;BME280;41676;44.610;44.078;2024-01-15T03:22:20;100403.72;;;-6.28;100.00
55757;BME280;41676;44.610;44.078;2024-01-15T03:27:20;100391.69;;;-6.29;100.00
55757;BME280;41676;44.610;44.078;2024-01-15T03:32:21;100392.66;;;-6.32;100.00
55757;BME280;41676;44.610;44.078;2024-01-15T03:37:22;100381.44;;;-6.31;100.00
55757;BME280;41676;44.610;44.078;2024-01-15T03:42:23;100398.75;;;-6.33;100.00
55757;BME280;41676;44.610;44.078;2024-01-15T03:47:23;100389.75;;;-6.46;100.00
55757;BME280;41676;44.610;44.078;2024-01-15T03:52:25;100407.28;;;-6.31;100.00
55757;BME280;41676;44.610;44.078;2024-01-15T03:57:25;100352.66;;;-6.67;100.00
55757;BME280;41676;44.610;44.078;2024-01-15T04:02:27;100394.66;;;-6.38;100.00
55757;BME280;41676;44.610;44.078;2024-01-15T04:07:27;100402.97;;;-6.30;100.00
55757;BME280;41676;44.610;44.078;2024-01-15T04:12:28;100353.91;;;-6.54;100.00
55757;BME280;41676;44.610;44.078;2024-01-15T04:17:29;100380.56;;;-6.53;100.00
55757;BME280;41676;44.610;44.078;2024-01-15T04:22:30;100371.84;;;-6.73;100.00
55757;BME280;41676;44.610;44.078;2024-01-15T04:27:31;100428.13;;;-6.35;100.00
55757;BME280;41676;44.610;44.078;2024-01-15T04:32:31;100429.81;;;-6.34;100.00
55757;BME280;41676;44.610;44.078;2024-01-15T04:37:32;100444.19;;;-6.27;100.00
55757;BME280;41676;44.610;44.078;2024-01-15T04:42:33;100430.31;;;-6.25;100.00
55757;BME280;41676;44.610;44.078;2024-01-15T04:47:34;100426.47;;;-6.14;100.00
55757;BME280;41676;44.610;44.078;2024-01-15T04:52:37;100423.75;;;-6.11;100.00
55757;BME280;41676;44.610;44.078;2024-01-15T04:57:37;100406.84;;;-6.20;100.00
55757;BME280;41676;44.610;44.078;2024-01-15T05:02:38;100412.69;;;-6.15;100.00
55757;BME280;41676;44.610;44.078;2024-01-15T05:07:39;100404.50;;;-6.26;100.00
55757;BME280;41676;44.610;44.078;2024-01-15T05:12:40;100412.94;;;-6.21;100.00
55757;BME280;41676;44.610;44.078;2024-01-15T05:17:40;100413.53;;;-6.14;100.00
55757;BME280;41676;44.610;44.078;2024-01-15T05:22:41;100432.19;;;-6.06;100.00
55757;BME280;41676;44.610;44.078;2024-01-15T05:27:42;100440.53;;;-6.00;100.00
55757;BME280;41676;44.610;44.078;2024-01-15T05:32:42;100451.31;;;-5.90;100.00
55757;BME280;41676;44.610;44.078;2024-01-15T05:37:45;100447.34;;;-5.77;100.00
55757;BME280;41676;44.610;44.078;2024-01-15T05:42:46;100435.25;;;-5.76;100.00
55757;BME280;41676;44.610;44.078;2024-01-15T05:47:47;100459.13;;;-5.69;100.00
55757;BME280;41676;44.610;44.078;2024-01-15T05:52:48;100469.69;;;-5.74;100.00
55757;BME280;41676;44.610;44.078;2024-01-15T05:57:49;100488.19;;;-5.85;100.00
55757;BME280;41676;44.610;44.078;2024-01-15T06:02:49;100491.63;;;-5.62;100.00
55757;BME280;41676;44.610;44.078;2024-01-15T06:07:50;100480.56;;;-5.45;100.00
55757;BME280;41676;44.610;44.078;2024-01-15T06:12:51;100470.06;;;-5.41;100.00
55757;BME280;41676;44.610;44.078;2024-01-15T06:17:51;100497.09;;;-5.28;100.00
55757;BME280;41676;44.610;44.078;2024-01-15T06:22:52;100512.47;;;-5.02;100.00
55757;BME280;41676;44.610;44.078;2024-01-15T06:38:31;100509.72;;;-4.79;100.00
55757;BME280;41676;44.610;44.078;2024-01-15T06:43:32;100515.41;;;-4.71;100.00
55757;BME280;41676;44.610;44.078;2024-01-15T06:48:33;100522.69;;;-4.79;100.00
55757;BME280;41676;44.610;44.078;2024-01-15T06:53:33;100526.91;;;-4.97;100.00
55757;BME280;41676;44.610;44.078;2024-01-15T06:58:34;100522.19;;;-5.08;100.00
55757;BME280;41676;44.610;44.078;2024-01-15T07:03:35;100522.34;;;-4.71;100.00
55757;BME280;41676;44.610;44.078;2024-01-15T07:08:35;100531.38;;;-4.41;100.00
55757;BME280;41676;44.610;44.078;2024-01-15T07:13:36;100506.81;;;-4.52;100.00
55757;BME280;41676;44.610;44.078;2024-01-15T07:18:38;100541.78;;;-4.03;100.00
55757;BME280;41676;44.610;44.078;2024-01-15T07:23:38;100514.50;;;-4.11;100.00
55757;BME280;41676;44.610;44.078;2024-01-15T07:28:39;100527.59;;;-3.96;100.00
55757;BME280;41676;44.610;44.078;2024-01-15T07:33:40;100562.34;;;-3.79;100.00
55757;BME280;41676;44.610;44.078;2024-01-15T07:38:41;100489.34;;;-4.09;99.50
55757;BME280;41676;44.610;44.078;2024-01-15T07:43:41;100550.47;;;-3.85;98.87
55757;BME280;41676;44.610;44.078;2024-01-15T07:48:42;100506.34;;;-4.04;98.49
55757;BME280;41676;44.610;44.078;2024-01-15T07:53:43;100582.28;;;-3.62;98.21
55757;BME280;41676;44.610;44.078;2024-01-15T07:58:44;100575.56;;;-3.67;97.35
55757;BME280;41676;44.610;44.078;2024-01-15T08:03:45;100494.09;;;-4.00;97.99
55757;BME280;41676;44.610;44.078;2024-01-15T08:08:46;100547.81;;;-3.47;97.54
55757;BME280;41676;44.610;44.078;2024-01-15T08:13:47;100543.41;;;-3.28;97.11
55757;BME280;41676;44.610;44.078;2024-01-15T08:18:47;100538.59;;;-3.35;96.99
55757;BME280;41676;44.610;44.078;2024-01-15T08:23:48;100472.47;;;-3.82;96.37
55757;BME280;41676;44.610;44.078;2024-01-15T08:28:49;100477.53;;;-3.61;95.99
55757;BME280;41676;44.610;44.078;2024-01-15T08:33:50;100482.31;;;-3.35;96.34
55757;BME280;41676;44.610;44.078;2024-01-15T08:38:51;100441.41;;;-3.49;95.24
55757;BME280;41676;44.610;44.078;2024-01-15T08:43:51;100498.94;;;-3.04;95.24
55757;BME280;41676;44.610;44.078;2024-01-15T08:48:53;100489.53;;;-2.89;94.61
55757;BME280;41676;44.610;44.078;2024-01-15T08:53:55;100443.91;;;-3.12;94.10
55757;BME280;41676;44.610;44.078;2024-01-15T08:58:56;100476.28;;;-3.02;93.59
55757;BME280;41676;44.610;44.078;2024-01-15T09:03:56;100473.25;;;-2.93;92.89
55757;BME280;41676;44.610;44.078;2024-01-15T09:08:57;100474.97;;;-2.76;92.69
55757;BME280;41676;44.610;44.078;2024-01-15T09:13:58;100493.94;;;-2.74;92.36
55757;BME280;41676;44.610;44.078;2024-01-15T09:18:59;100470.66;;;-2.93;92.97
55757;BME280;41676;44.610;44.078;2024-01-15T09:24:00;100467.97;;;-2.91;92.29
55757;BME280;41676;44.610;44.078;2024-01-15T09:29:00;100424.91;;;-2.80;92.76
55757;BME280;41676;44.610;44.078;2024-01-15T09:34:01;100438.97;;;-2.50;91.72
55757;BME280;41676;44.610;44.078;2024-01-15T09:39:02;100458.84;;;-2.49;91.18
55757;BME280;41676;44.610;44.078;2024-01-15T09:44:03;100466.78;;;-2.68;90.87
55757;BME280;41676;44.610;44.078;2024-01-15T09:49:04;100474.75;;;-2.71;91.93
55757;BME280;41676;44.610;44.078;2024-01-15T09:54:06;100480.22;;;-2.60;92.19
55757;BME280;41676;44.610;44.078;2024-01-15T09:59:07;100475.66;;;-2.39;91.64
55757;BME280;41676;44.610;44.078;2024-01-15T10:04:08;100483.47;;;-2.08;91.36
55757;BME280;41676;44.610;44.078;2024-01-15T10:09:09;100485.38;;;-1.95;90.46
55757;BME280;41676;44.610;44.078;2024-01-15T10:14:13;100433.09;;;-2.38;89.33
55757;BME280;41676;44.610;44.078;2024-01-15T10:19:14;100440.13;;;-2.56;90.10
55757;BME280;41676;44.610;44.078;2024-01-15T10:24:14;100473.59;;;-2.50;91.08
55757;BME280;41676;44.610;44.078;2024-01-15T10:29:15;100414.16;;;-2.73;91.20
55757;BME280;41676;44.610;44.078;2024-01-15T10:34:16;100460.66;;;-2.52;90.92
55757;BME280;41676;44.610;44.078;2024-01-15T10:39:18;100488.38;;;-2.50;90.51
55757;BME280;41676;44.610;44.078;2024-01-15T10:44:19;100486.00;;;-2.55;90.48
55757;BME280;41676;44.610;44.078;2024-01-15T10:49:20;100469.22;;;-2.65;91.02
55757;BME280;41676;44.610;44.078;2024-01-15T10:54:21;100454.28;;;-2.95;90.42
55757;BME280;41676;44.610;44.078;2024-01-15T10:59:24;100442.09;;;-3.10;90.35
55757;BME280;41676;44.610;44.078;2024-01-15T11:04:25;100487.41;;;-2.99;90.46
55757;BME280;41676;44.610;44.078;2024-01-15T11:09:28;100496.88;;;-3.32;90.72
55757;BME280;41676;44.610;44.078;2024-01-15T11:15:00;100521.69;;;-3.44;91.73
55757;BME280;41676;44.610;44.078;2024-01-15T11:19:58;100510.25;;;-3.40;92.06
55757;BME280;41676;44.610;44.078;2024-01-15T11:25:11;100524.28;;;-3.44;92.02
55757;BME280;41676;44.610;44.078;2024-01-15T11:30:14;100515.16;;;-3.34;91.85
55757;BME280;41676;44.610;44.078;2024-01-15T11:35:14;100505.22;;;-3.43;91.95
55757;BME280;41676;44.610;44.078;2024-01-15T11:40:18;100522.06;;;-3.52;92.85
55757;BME280;41676;44.610;44.078;2024-01-15T11:45:20;100526.72;;;-3.58;92.76
55757;BME280;41676;44.610;44.078;2024-01-15T11:50:21;100515.84;;;-3.67;92.45
55757;BME280;41676;44.610;44.078;2024-01-15T11:55:35;100526.72;;;-3.58;93.71
55757;BME280;41676;44.610;44.078;2024-01-15T12:00:44;100506.25;;;-3.83;93.42
55757;BME280;41676;44.610;44.078;2024-01-15T12:05:45;100545.28;;;-3.85;93.39
55757;BME280;41676;44.610;44.078;2024-01-15T12:10:46;100532.44;;;-3.88;94.13
55757;BME280;41676;44.610;44.078;2024-01-15T12:15:47;100532.88;;;-3.97;94.39
55757;BME280;41676;44.610;44.078;2024-01-15T12:20:49;100515.75;;;-4.01;94.20
55757;BME280;41676;44.610;44.078;2024-01-15T12:25:50;100475.03;;;-4.18;93.96
55757;BME280;41676;44.610;44.078;2024-01-15T12:30:51;100528.31;;;-4.11;93.37
55757;BME280;41676;44.610;44.078;2024-01-15T12:35:54;100529.44;;;-4.17;92.13
55757;BME280;41676;44.610;44.078;2024-01-15T12:40:55;100558.09;;;-4.20;92.85
55757;BME280;41676;44.610;44.078;2024-01-15T12:46:14;100540.16;;;-4.24;91.97
55757;BME280;41676;44.610;44.078;2024-01-15T12:51:15;100569.16;;;-4.35;92.09
55757;BME280;41676;44.610;44.078;2024-01-15T12:56:16;100581.56;;;-4.42;91.92
55757;BME280;41676;44.610;44.078;2024-01-15T13:01:17;100558.94;;;-4.59;91.69
55757;BME280;41676;44.610;44.078;2024-01-15T13:06:18;100555.00;;;-4.67;91.18
55757;BME280;41676;44.610;44.078;2024-01-15T13:11:37;100571.38;;;-4.67;90.98
55757;BME280;41676;44.610;44.078;2024-01-15T13:16:38;100583.03;;;-4.75;91.87
55757;BME280;41676;44.610;44.078;2024-01-15T13:27:00;100529.25;;;-5.33;91.83
55757;BME280;41676;44.610;44.078;2024-01-15T13:32:01;100576.13;;;-5.39;91.42
55757;BME280;41676;44.610;44.078;2024-01-15T13:37:02;100586.94;;;-5.30;91.94
55757;BME280;41676;44.610;44.078;2024-01-15T13:42:03;100582.63;;;-5.51;91.92
55757;BME280;41676;44.610;44.078;2024-01-15T13:47:06;100550.78;;;-5.75;92.46
55757;BME280;41676;44.610;44.078;2024-01-15T13:52:06;100628.34;;;-5.50;92.27
55757;BME280;41676;44.610;44.078;2024-01-15T13:57:07;100613.91;;;-5.57;92.38
55757;BME280;41676;44.610;44.078;2024-01-15T14:02:08;100631.09;;;-5.78;92.42
55757;BME280;41676;44.610;44.078;2024-01-15T14:07:10;100553.25;;;-6.16;93.44
55757;BME280;41676;44.610;44.078;2024-01-15T14:12:29;100609.34;;;-6.18;92.76
55757;BME280;41676;44.610;44.078;2024-01-15T14:17:30;100614.63;;;-6.21;93.75
55757;BME280;41676;44.610;44.078;2024-01-15T14:22:30;100616.56;;;-6.28;93.63
55757;BME280;41676;44.610;44.078;2024-01-15T14:27:31;100611.50;;;-6.56;93.93
55757;BME280;41676;44.610;44.078;2024-01-15T14:32:33;100649.44;;;-6.31;94.57
55757;BME280;41676;44.610;44.078;2024-01-15T14:37:33;100616.16;;;-6.66;94.48
55757;BME280;41676;44.610;44.078;2024-01-15T14:42:34;100672.38;;;-6.47;94.49
55757;BME280;41676;44.610;44.078;2024-01-15T14:47:40;100579.75;;;-7.09;94.52
55757;BME280;41676;44.610;44.078;2024-01-15T14:52:41;100661.66;;;-6.88;93.88
55757;BME280;41676;44.610;44.078;2024-01-15T14:57:42;100664.97;;;-6.83;94.79
55757;BME280;41676;44.610;44.078;2024-01-15T15:02:43;100678.13;;;-6.91;94.31
55757;BME280;41676;44.610;44.078;2024-01-15T15:07:44;100669.69;;;-6.96;95.02
55757;BME280;41676;44.610;44.078;2024-01-15T15:12:45;100660.97;;;-7.20;94.33
55757;BME280;41676;44.610;44.078;2024-01-15T15:17:45;100594.63;;;-7.72;93.99
55757;BME280;41676;44.610;44.078;2024-01-15T15:22:46;100641.09;;;-7.44;94.17
55757;BME280;41676;44.610;44.078;2024-01-15T15:27:47;100623.50;;;-7.60;94.49
55757;BME280;41676;44.610;44.078;2024-01-15T15:32:48;100580.69;;;-7.95;94.58
55757;BME280;41676;44.610;44.078;2024-01-15T15:38:07;100605.69;;;-7.69;95.13
55757;BME280;41676;44.610;44.078;2024-01-15T15:43:08;100580.84;;;-7.71;95.73
55757;BME280;41676;44.610;44.078;2024-01-15T15:48:09;100599.47;;;-7.62;95.44
55757;BME280;41676;44.610;44.078;2024-01-15T15:53:11;100595.56;;;-7.75;94.92
55757;BME280;41676;44.610;44.078;2024-01-15T15:58:12;100601.50;;;-7.71;94.86
55757;BME280;41676;44.610;44.078;2024-01-15T16:03:12;100591.06;;;-7.68;95.40
55757;BME280;41676;44.610;44.078;2024-01-15T16:08:13;100521.47;;;-7.98;95.56
55757;BME280;41676;44.610;44.078;2024-01-15T16:13:14;100572.16;;;-7.69;95.75
55757;BME280;41676;44.610;44.078;2024-01-15T16:18:15;100571.13;;;-7.63;95.69
55757;BME280;41676;44.610;44.078;2024-01-15T16:23:16;100517.16;;;-7.69;95.65
55757;BME280;41676;44.610;44.078;2024-01-15T16:28:17;100564.84;;;-7.28;95.56
55757;BME280;41676;44.610;44.078;2024-01-15T16:33:18;100563.06;;;-7.26;95.16
55757;BME280;41676;44.610;44.078;2024-01-15T16:38:18;100560.94;;;-7.40;94.81
55757;BME280;41676;44.610;44.078;2024-01-15T16:43:21;100560.06;;;-7.39;94.42
55757;BME280;41676;44.610;44.078;2024-01-15T16:48:22;100565.69;;;-7.27;94.38
55757;BME280;41676;44.610;44.078;2024-01-15T16:53:23;100567.69;;;-7.36;94.22
55757;BME280;41676;44.610;44.078;2024-01-15T16:58:24;100555.66;;;-7.37;93.70
55757;BME280;41676;44.610;44.078;2024-01-15T17:03:24;100566.38;;;-7.49;93.45
55757;BME280;41676;44.610;44.078;2024-01-15T17:08:25;100518.75;;;-7.93;93.19
55757;BME280;41676;44.610;44.078;2024-01-15T17:13:26;100559.50;;;-7.76;93.65
55757;BME280;41676;44.610;44.078;2024-01-15T17:18:27;100484.50;;;-7.97;93.58
55757;BME280;41676;44.610;44.078;2024-01-15T17:23:28;100511.53;;;-7.82;93.33
55757;BME280;41676;44.610;44.078;2024-01-15T17:28:29;100568.69;;;-7.68;92.92
55757;BME280;41676;44.610;44.078;2024-01-15T17:33:30;100526.97;;;-8.38;91.98
55757;BME280;41676;44.610;44.078;2024-01-15T17:38:49;100585.56;;;-8.15;92.17
55757;BME280;41676;44.610;44.078;2024-01-15T17:43:50;100578.97;;;-8.26;92.51
55757;BME280;41676;44.610;44.078;2024-01-15T17:48:50;100563.19;;;-8.43;92.42
55757;BME280;41676;44.610;44.078;2024-01-15T17:53:51;100583.91;;;-8.47;92.15
55757;BME280;41676;44.610;44.078;2024-01-15T17:58:52;100566.19;;;-8.58;92.74
55757;BME280;41676;44.610;44.078;2024-01-15T18:03:53;100561.97;;;-8.61;93.39
55757;BME280;41676;44.610;44.078;2024-01-15T18:08:54;100559.50;;;-8.65;92.72
55757;BME280;41676;44.610;44.078;2024-01-15T18:13:54;100564.66;;;-8.65;92.49
55757;BME280;41676;44.610;44.078;2024-01-15T18:18:56;100567.22;;;-8.65;92.64
55757;BME280;41676;44.610;44.078;2024-01-15T18:23:57;100556.44;;;-8.80;91.72
55757;BME280;41676;44.610;44.078;2024-01-15T18:28:57;100511.06;;;-9.15;91.58
55757;BME280;41676;44.610;44.078;2024-01-15T18:33:58;100550.94;;;-8.99;91.86
55757;BME280;41676;44.610;44.078;2024-01-15T18:38:59;100553.78;;;-9.09;91.60
55757;BME280;41676;44.610;44.078;2024-01-15T18:44:06;100545.69;;;-9.28;91.31
55757;BME280;41676;44.610;44.078;2024-01-15T18:49:07;100560.03;;;-9.18;92.11
55757;BME280;41676;44.610;44.078;2024-01-15T18:54:08;100553.78;;;-9.09;91.94
55757;BME280;41676;44.610;44.078;2024-01-15T18:59:08;100542.53;;;-9.05;91.65
55757;BME280;41676;44.610;44.078;2024-01-15T19:04:09;100496.81;;;-9.28;91.69
55757;BME280;41676;44.610;44.078;2024-01-15T19:09:12;100517.31;;;-9.25;91.18
55757;BME280;41676;44.610;44.078;2024-01-15T19:14:12;100481.69;;;-9.40;91.20
55757;BME280;41676;44.610;44.078;2024-01-15T19:19:31;100507.00;;;-9.24;90.74
55757;BME280;41676;44.610;44.078;2024-01-15T19:24:37;100533.19;;;-9.09;90.65
55757;BME280;41676;44.610;44.078;2024-01-15T19:29:39;100516.88;;;-9.08;90.76
55757;BME280;41676;44.610;44.078;2024-01-15T19:34:40;100516.03;;;-9.09;91.18
55757;BME280;41676;44.610;44.078;2024-01-15T19:39:41;100510.25;;;-9.17;90.59
55757;BME280;41676;44.610;44.078;2024-01-15T19:44:42;100509.94;;;-9.06;90.15
55757;BME280;41676;44.610;44.078;2024-01-15T19:49:42;100469.63;;;-9.38;90.13
55757;BME280;41676;44.610;44.078;2024-01-15T19:54:46;100502.78;;;-9.28;89.79
55757;BME280;41676;44.610;44.078;2024-01-15T19:59:46;100518.03;;;-9.20;90.25
55757;BME280;41676;44.610;44.078;2024-01-15T20:04:48;100482.97;;;-9.58;89.46
55757;BME280;41676;44.610;44.078;2024-01-15T20:09:49;100511.50;;;-9.33;89.72
55757;BME280;41676;44.610;44.078;2024-01-15T20:14:50;100517.16;;;-9.19;89.99
55757;BME280;41676;44.610;44.078;2024-01-15T20:19:50;100468.44;;;-9.59;89.52
55757;BME280;41676;44.610;44.078;2024-01-15T20:25:10;100469.69;;;-9.76;89.14
55757;BME280;41676;44.610;44.078;2024-01-15T20:30:11;100512.16;;;-9.59;89.46
55757;BME280;41676;44.610;44.078;2024-01-15T20:35:11;100499.53;;;-9.70;89.50
55757;BME280;41676;44.610;44.078;2024-01-15T20:40:12;100509.28;;;-9.47;90.02
55757;BME280;41676;44.610;44.078;2024-01-15T20:45:13;100517.94;;;-9.51;89.72
55757;BME280;41676;44.610;44.078;2024-01-15T20:50:14;100505.81;;;-9.46;89.90
55757;BME280;41676;44.610;44.078;2024-01-15T20:55:15;100451.16;;;-9.89;89.05
55757;BME280;41676;44.610;44.078;2024-01-15T21:00:16;100491.09;;;-9.75;88.39
55757;BME280;41676;44.610;44.078;2024-01-15T21:05:18;100469.69;;;-9.76;89.53
55757;BME280;41676;44.610;44.078;2024-01-15T21:10:19;100474.03;;;-9.42;89.68
55757;BME280;41676;44.610;44.078;2024-01-15T21:15:20;100437.84;;;-9.70;89.43
55757;BME280;41676;44.610;44.078;2024-01-15T21:20:20;100449.53;;;-9.57;90.02
55757;BME280;41676;44.610;44.078;2024-01-15T21:25:21;100486.66;;;-9.33;89.96
55757;BME280;41676;44.610;44.078;2024-01-15T21:30:22;100429.75;;;-9.55;90.01
55757;BME280;41676;44.610;44.078;2024-01-15T21:35:23;100472.53;;;-9.18;89.74
55757;BME280;41676;44.610;44.078;2024-01-15T21:40:23;100471.31;;;-9.05;89.57
55757;BME280;41676;44.610;44.078;2024-01-15T21:45:24;100418.88;;;-9.32;89.42
55757;BME280;41676;44.610;44.078;2024-01-15T21:50:25;100470.31;;;-8.99;89.75
55757;BME280;41676;44.610;44.078;2024-01-15T21:55:26;100435.72;;;-9.22;89.74
55757;BME280;41676;44.610;44.078;2024-01-15T22:00:27;100348.75;;;-9.71;89.80
55757;BME280;41676;44.610;44.078;2024-01-15T22:05:28;100476.25;;;-8.66;90.06
55757;BME280;41676;44.610;44.078;2024-01-15T22:10:28;100457.25;;;-8.34;90.64
55757;BME280;41676;44.610;44.078;2024-01-15T22:15:29;100443.66;;;-8.11;91.16
55757;BME280;41676;44.610;44.078;2024-01-15T22:20:30;100429.72;;;-8.04;90.65
55757;BME280;41676;44.610;44.078;2024-01-15T22:25:31;100450.56;;;-8.11;89.74
55757;BME280;41676;44.610;44.078;2024-01-15T22:30:35;100413.59;;;-8.10;90.39
55757;BME280;41676;44.610;44.078;2024-01-15T22:35:36;100422.81;;;-7.76;91.19
55757;BME280;41676;44.610;44.078;2024-01-15T22:40:36;100436.66;;;-7.54;90.96
55757;BME280;41676;44.610;44.078;2024-01-15T22:45:37;100453.28;;;-7.36;90.89
55757;BME280;41676;44.610;44.078;2024-01-15T22:50:38;100398.19;;;-7.87;90.21
55757;BME280;41676;44.610;44.078;2024-01-15T22:55:39;100425.84;;;-7.90;90.19
55757;BME280;41676;44.610;44.078;2024-01-15T23:00:39;100413.13;;;-8.23;90.49
55757;BME280;41676;44.610;44.078;2024-01-15T23:05:44;100470.78;;;-7.99;91.48
55757;BME280;41676;44.610;44.078;2024-01-15T23:10:45;100468.13;;;-7.69;91.90
55757;BME280;41676;44.610;44.078;2024-01-15T23:15:45;100451.59;;;-7.62;92.19
55757;BME280;41676;44.610;44.078;2024-01-15T23:20:46;100458.81;;;-7.73;91.59
55757;BME280;41676;44.610;44.078;2024-01-15T23:25:47;100462.09;;;-7.68;91.81
55757;BME280;41676;44.610;44.078;2024-01-15T23:30:48;100477.22;;;-7.58;92.07
55757;BME280;41676;44.610;44.078;2024-01-15T23:35:48;100466.56;;;-7.73;91.85
55757;BME280;41676;44.610;44.078;2024-01-15T23:40:50;100466.47;;;-7.70;91.77
55757;BME280;41676;44.610;44.078;2024-01-15T23:45:52;100401.75;;;-7.89;91.72
55757;BME280;41676;44.610;44.078;2024-01-15T23:50:52;100416.34;;;-7.90;91.54
55757;BME280;41676;44.610;44.078;2024-01-15T23:55:53;100464.38;;;-7.86;91.37
